sensor_id;sensor_type;location;lat;lon;timestamp;temperature;humidity
21805;DHT22;11064;47.102;15.452;2022-11-13T06:03:08;4.70;99.90
21805;DHT22;11064;47.102;15.452;2022-11-13T06:05:34;4.80;99.90
21805;DHT22;11064;47.102;15.452;2022-11-13T06:08:00;4.90;99.90
21805;DHT22;11064;47.102;15.452;2022-11-13T06:10:26;5.00;99.90
21805;DHT22;11064;47.102;15.452;2022-11-13T06:12:54;5.10;99.90
21805;DHT22;11064;47.102;15.452;2022-11-13T06:15:20;5.20;99.90
21805;DHT22;11064;47.102;15.452;2022-11-13T06:17:45;5.20;99.90
21805;DHT22;11064;47.102;15.452;2022-11-13T06:20:11;5.20;99.90
21805;DHT22;11064;47.102;15.452;2022-11-13T06:22:37;5.30;99.90
21805;DHT22;11064;47.102;15.452;2022-11-13T06:25:03;5.30;99.90
21805;DHT22;11064;47.102;15.452;2022-11-13T06:27:29;5.40;99.90
21805;DHT22;11064;47.102;15.452;2022-11-13T06:29:54;5.40;99.90
21805;DHT22;11064;47.102;15.452;2022-11-13T06:32:20;5.40;99.90
21805;DHT22;11064;47.102;15.452;2022-11-13T06:34:46;5.40;99.90
21805;DHT22;11064;47.102;15.452;2022-11-13T06:37:12;5.40;99.90
21805;DHT22;11064;47.102;15.452;2022-11-13T06:39:37;5.40;99.90
21805;DHT22;11064;47.102;15.452;2022-11-13T06:42:03;5.30;99.90
21805;DHT22;11064;47.102;15.452;2022-11-13T06:44:29;5.20;99.90
21805;DHT22;11064;47.102;15.452;2022-11-13T06:46:55;5.20;99.90
21805;DHT22;11064;47.102;15.452;2022-11-13T06:49:21;5.20;99.90
21805;DHT22;11064;47.102;15.452;2022-11-13T06:51:47;5.10;99.90
21805;DHT22;11064;47.102;15.452;2022-11-13T06:54:12;5.00;99.90
21805;DHT22;11064;47.102;15.452;2022-11-13T06:56:38;5.00;99.90
21805;DHT22;11064;47.102;15.452;2022-11-13T06:59:10;4.90;99.90
21805;DHT22;11064;47.102;15.452;2022-11-13T07:01:36;5.00;99.90
21805;DHT22;11064;47.102;15.452;2022-11-13T07:04:02;5.00;99.90
21805;DHT22;11064;47.102;15.452;2022-11-13T07:06:29;5.10;99.90
21805;DHT22;11064;47.102;15.452;2022-11-13T07:08:55;5.10;99.90
21805;DHT22;11064;47.102;15.452;2022-11-13T07:11:22;5.10;99.90
21805;DHT22;11064;47.102;15.452;2022-11-13T07:13:48;5.10;99.90
21805;DHT22;11064;47.102;15.452;2022-11-13T07:16:15;5.20;99.90
21805;DHT22;11064;47.102;15.452;2022-11-13T07:18:42;5.20;99.90
21805;DHT22;11064;47.102;15.452;2022-11-13T07:21:09;5.30;99.90
21805;DHT22;11064;47.102;15.452;2022-11-13T07:23:37;5.50;99.90
21805;DHT22;11064;47.102;15.452;2022-11-13T07:26:08;5.60;99.90
21805;DHT22;11064;47.102;15.452;2022-11-13T07:28:34;5.80;99.90
21805;DHT22;11064;47.102;15.452;2022-11-13T07:31:00;6.00;99.90
21805;DHT22;11064;47.102;15.452;2022-11-13T07:33:26;6.10;99.90
21805;DHT22;11064;47.102;15.452;2022-11-13T07:35:54;6.20;99.90
21805;DHT22;11064;47.102;15.452;2022-11-13T07:38:21;6.30;99.90
21805;DHT22;11064;47.102;15.452;2022-11-13T07:40:46;6.50;99.90
21805;DHT22;11064;47.102;15.452;2022-11-13T07:43:12;6.70;99.90
21805;DHT22;11064;47.102;15.452;2022-11-13T07:45:38;6.70;99.90
21805;DHT22;11064;47.102;15.452;2022-11-13T07:48:04;6.80;99.90
21805;DHT22;11064;47.102;15.452;2022-11-13T07:50:33;6.80;99.90
21805;DHT22;11064;47.102;15.452;2022-11-13T07:53:01;6.90;99.90
21805;DHT22;11064;47.102;15.452;2022-11-13T07:55:28;7.00;99.90
21805;DHT22;11064;47.102;15.452;2022-11-13T07:57:55;7.10;99.90
21805;DHT22;11064;47.102;15.452;2022-11-13T08:00:23;7.00;99.90
21805;DHT22;11064;47.102;15.452;2022-11-13T08:02:49;7.20;99.90
21805;DHT22;11064;47.102;15.452;2022-11-13T08:05:15;7.30;99.90
21805;DHT22;11064;47.102;15.452;2022-11-13T08:07:41;7.40;99.90
21805;DHT22;11064;47.102;15.452;2022-11-13T08:10:07;7.60;99.90
21805;DHT22;11064;47.102;15.452;2022-11-13T08:12:33;7.90;99.90
21805;DHT22;11064;47.102;15.452;2022-11-13T08:14:59;8.00;99.90
21805;DHT22;11064;47.102;15.452;2022-11-13T08:17:25;8.00;99.90
21805;DHT22;11064;47.102;15.452;2022-11-13T08:19:50;8.10;99.90
21805;DHT22;11064;47.102;15.452;2022-11-13T08:22:16;8.30;99.90
21805;DHT22;11064;47.102;15.452;2022-11-13T08:24:42;8.50;99.90
21805;DHT22;11064;47.102;15.452;2022-11-13T08:27:07;8.60;99.90
21805;DHT22;11064;47.102;15.452;2022-11-13T08:29:33;8.60;99.90
21805;DHT22;11064;47.102;15.452;2022-11-13T08:32:02;8.60;99.90
21805;DHT22;11064;47.102;15.452;2022-11-13T08:34:29;8.50;99.90
21805;DHT22;11064;47.102;15.452;2022-11-13T08:36:54;8.40;99.90
21805;DHT22;11064;47.102;15.452;2022-11-13T08:39:20;8.30;99.90
21805;DHT22;11064;47.102;15.452;2022-11-13T08:41:46;8.20;99.90
21805;DHT22;11064;47.102;15.452;2022-11-13T08:44:12;8.10;99.90
21805;DHT22;11064;47.102;15.452;2022-11-13T08:46:39;7.90;99.90
21805;DHT22;11064;47.102;15.452;2022-11-13T08:49:05;7.80;99.90
21805;DHT22;11064;47.102;15.452;2022-11-13T08:51:31;7.70;99.90
21805;DHT22;11064;47.102;15.452;2022-11-13T08:53:57;7.70;99.90
21805;DHT22;11064;47.102;15.452;2022-11-13T08:56:22;7.70;99.90
21805;DHT22;11064;47.102;15.452;2022-11-13T08:58:48;7.70;99.90
21805;DHT22;11064;47.102;15.452;2022-11-13T09:01:14;7.70;99.90
21805;DHT22;11064;47.102;15.452;2022-11-13T09:03:41;7.70;99.90
21805;DHT22;11064;47.102;15.452;2022-11-13T09:06:07;7.70;99.90
21805;DHT22;11064;47.102;15.452;2022-11-13T09:08:33;7.80;99.90
21805;DHT22;11064;47.102;15.452;2022-11-13T09:11:03;7.80;99.90
21805;DHT22;11064;47.102;15.452;2022-11-13T09:13:31;7.80;99.90
21805;DHT22;11064;47.102;15.452;2022-11-13T09:15:58;7.80;99.90
21805;DHT22;11064;47.102;15.452;2022-11-13T09:18:24;7.90;99.90
21805;DHT22;11064;47.102;15.452;2022-11-13T09:20:50;7.90;99.90
21805;DHT22;11064;47.102;15.452;2022-11-13T09:23:15;8.00;99.90
21805;DHT22;11064;47.102;15.452;2022-11-13T09:25:41;8.10;99.90
21805;DHT22;11064;47.102;15.452;2022-11-13T09:28:08;8.20;99.90
21805;DHT22;11064;47.102;15.452;2022-11-13T09:30:37;8.30;99.90
21805;DHT22;11064;47.102;15.452;2022-11-13T09:33:04;8.30;99.90
21805;DHT22;11064;47.102;15.452;2022-11-13T09:35:31;8.30;99.90
21805;DHT22;11064;47.102;15.452;2022-11-13T09:38:04;8.40;99.90
21805;DHT22;11064;47.102;15.452;2022-11-13T09:40:38;8.50;99.90
21805;DHT22;11064;47.102;15.452;2022-11-13T09:43:58;8.50;99.90
21805;DHT22;11064;47.102;15.452;2022-11-13T09:46:02;8.60;99.90
21805;DHT22;11064;47.102;15.452;2022-11-13T09:48:39;8.70;99.90
21805;DHT22;11064;47.102;15.452;2022-11-13T09:51:20;8.80;99.90
21805;DHT22;11064;47.102;15.452;2022-11-13T09:53:47;8.80;99.90
21805;DHT22;11064;47.102;15.452;2022-11-13T09:56:36;8.90;99.90
21805;DHT22;11064;47.102;15.452;2022-11-13T10:01:57;9.20;99.90
21805;DHT22;11064;47.102;15.452;2022-11-13T10:13:37;9.40;99.90
21805;DHT22;11064;47.102;15.452;2022-11-13T10:19:56;9.50;99.90
21805;DHT22;11064;47.102;15.452;2022-11-13T10:25:15;9.80;99.90
21805;DHT22;11064;47.102;15.452;2022-11-13T10:27:43;9.90;99.90
21805;DHT22;11064;47.102;15.452;2022-11-13T10:30:14;10.00;99.90
21805;DHT22;11064;47.102;15.452;2022-11-13T10:32:42;10.10;99.90
21805;DHT22;11064;47.102;15.452;2022-11-13T10:38:31;10.20;99.90
21805;DHT22;11064;47.102;15.452;2022-11-13T10:41:11;10.20;99.90
21805;DHT22;11064;47.102;15.452;2022-11-13T10:44:02;10.10;99.90
21805;DHT22;11064;47.102;15.452;2022-11-13T10:46:29;10.10;99.90
21805;DHT22;11064;47.102;15.452;2022-11-13T10:48:56;10.10;99.90
21805;DHT22;11064;47.102;15.452;2022-11-13T10:51:31;10.10;99.90
21805;DHT22;11064;47.102;15.452;2022-11-13T10:53:59;10.20;99.90
21805;DHT22;11064;47.102;15.452;2022-11-13T10:56:30;10.20;99.90
21805;DHT22;11064;47.102;15.452;2022-11-13T10:59:13;10.20;99.90
21805;DHT22;11064;47.102;15.452;2022-11-13T11:01:42;10.20;99.90
21805;DHT22;11064;47.102;15.452;2022-11-13T11:04:23;10.30;99.90
21805;DHT22;11064;47.102;15.452;2022-11-13T11:06:52;10.30;99.90
21805;DHT22;11064;47.102;15.452;2022-11-13T11:09:22;10.40;99.90
21805;DHT22;11064;47.102;15.452;2022-11-13T11:22:53;10.70;99.90
21805;DHT22;11064;47.102;15.452;2022-11-13T11:25:25;10.60;99.90
21805;DHT22;11064;47.102;15.452;2022-11-13T11:28:08;10.70;99.90
21805;DHT22;11064;47.102;15.452;2022-11-13T11:30:49;10.70;99.90
21805;DHT22;11064;47.102;15.452;2022-11-13T11:36:24;10.50;99.90
21805;DHT22;11064;47.102;15.452;2022-11-13T11:42:11;10.60;99.90
21805;DHT22;11064;47.102;15.452;2022-11-13T11:45:04;10.60;99.90
21805;DHT22;11064;47.102;15.452;2022-11-13T11:47:33;10.70;99.90
21805;DHT22;11064;47.102;15.452;2022-11-13T11:49:59;10.70;99.90
21805;DHT22;11064;47.102;15.452;2022-11-13T11:55:25;10.70;99.90
21805;DHT22;11064;47.102;15.452;2022-11-13T12:00:31;10.60;99.90
21805;DHT22;11064;47.102;15.452;2022-11-13T12:03:08;10.60;99.90
21805;DHT22;11064;47.102;15.452;2022-11-13T12:06:10;10.60;99.90
21805;DHT22;11064;47.102;15.452;2022-11-13T12:08:56;10.70;99.90
21805;DHT22;11064;47.102;15.452;2022-11-13T12:11:39;10.70;99.90
21805;DHT22;11064;47.102;15.452;2022-11-13T12:20:40;11.10;99.90
21805;DHT22;11064;47.102;15.452;2022-11-13T12:23:23;11.20;99.90
21805;DHT22;11064;47.102;15.452;2022-11-13T12:25:59;11.10;99.90
21805;DHT22;11064;47.102;15.452;2022-11-13T12:28:43;11.20;99.90
21805;DHT22;11064;47.102;15.452;2022-11-13T12:36:06;11.10;99.90
21805;DHT22;11064;47.102;15.452;2022-11-13T12:38:36;10.90;99.90
21805;DHT22;11064;47.102;15.452;2022-11-13T12:46:10;10.70;99.90
21805;DHT22;11064;47.102;15.452;2022-11-13T12:48:42;10.80;99.90
21805;DHT22;11064;47.102;15.452;2022-11-13T12:51:13;10.80;99.90
21805;DHT22;11064;47.102;15.452;2022-11-13T12:53:47;10.80;99.90
21805;DHT22;11064;47.102;15.452;2022-11-13T12:56:30;10.80;99.90
21805;DHT22;11064;47.102;15.452;2022-11-13T12:58:58;10.90;99.90
21805;DHT22;11064;47.102;15.452;2022-11-13T13:01:27;10.90;99.90
21805;DHT22;11064;47.102;15.452;2022-11-13T13:12:17;11.40;99.90
21805;DHT22;11064;47.102;15.452;2022-11-13T13:17:34;11.90;99.90
21805;DHT22;11064;47.102;15.452;2022-11-13T13:22:37;12.10;99.90
21805;DHT22;11064;47.102;15.452;2022-11-13T13:25:26;12.00;99.90
21805;DHT22;11064;47.102;15.452;2022-11-13T13:27:59;12.10;99.90
21805;DHT22;11064;47.102;15.452;2022-11-13T13:30:26;12.20;99.90
21805;DHT22;11064;47.102;15.452;2022-11-13T13:35:31;12.30;99.90
21805;DHT22;11064;47.102;15.452;2022-11-13T13:46:21;12.70;99.90
21805;DHT22;11064;47.102;15.452;2022-11-13T13:48:50;12.70;99.90
21805;DHT22;11064;47.102;15.452;2022-11-13T13:51:28;12.70;99.90
21805;DHT22;11064;47.102;15.452;2022-11-13T13:53:58;12.80;99.90
21805;DHT22;11064;47.102;15.452;2022-11-13T13:56:25;12.90;99.90
21805;DHT22;11064;47.102;15.452;2022-11-13T13:58:52;12.90;99.90
21805;DHT22;11064;47.102;15.452;2022-11-13T14:01:33;13.20;99.90
21805;DHT22;11064;47.102;15.452;2022-11-13T14:04:04;13.10;99.90
21805;DHT22;11064;47.102;15.452;2022-11-13T14:06:30;13.10;99.90
21805;DHT22;11064;47.102;15.452;2022-11-13T14:09:09;13.10;99.90
21805;DHT22;11064;47.102;15.452;2022-11-13T14:11:40;13.00;99.90
21805;DHT22;11064;47.102;15.452;2022-11-13T14:14:17;12.90;99.90
21805;DHT22;11064;47.102;15.452;2022-11-13T14:16:48;12.80;99.90
21805;DHT22;11064;47.102;15.452;2022-11-13T14:19:14;12.80;99.90
21805;DHT22;11064;47.102;15.452;2022-11-13T14:21:42;12.70;99.90
21805;DHT22;11064;47.102;15.452;2022-11-13T14:26:41;12.30;99.90
21805;DHT22;11064;47.102;15.452;2022-11-13T14:29:21;12.20;99.90
21805;DHT22;11064;47.102;15.452;2022-11-13T14:31:48;12.00;99.90
21805;DHT22;11064;47.102;15.452;2022-11-13T14:34:18;11.60;99.90
21805;DHT22;11064;47.102;15.452;2022-11-13T14:36:45;11.30;99.90
21805;DHT22;11064;47.102;15.452;2022-11-13T14:39:31;10.90;99.90
21805;DHT22;11064;47.102;15.452;2022-11-13T14:41:59;10.70;99.90
21805;DHT22;11064;47.102;15.452;2022-11-13T14:44:31;10.60;99.90
21805;DHT22;11064;47.102;15.452;2022-11-13T14:47:05;10.40;99.90
21805;DHT22;11064;47.102;15.452;2022-11-13T14:49:44;10.20;99.90
21805;DHT22;11064;47.102;15.452;2022-11-13T14:52:23;10.00;99.90
21805;DHT22;11064;47.102;15.452;2022-11-13T14:55:00;9.70;99.90
21805;DHT22;11064;47.102;15.452;2022-11-13T14:57:27;9.50;99.90
21805;DHT22;11064;47.102;15.452;2022-11-13T14:59:53;9.30;99.90
21805;DHT22;11064;47.102;15.452;2022-11-13T15:02:19;9.10;99.90
21805;DHT22;11064;47.102;15.452;2022-11-13T15:04:45;9.00;99.90
21805;DHT22;11064;47.102;15.452;2022-11-13T15:07:29;8.90;99.90
21805;DHT22;11064;47.102;15.452;2022-11-13T15:09:56;8.70;99.90
21805;DHT22;11064;47.102;15.452;2022-11-13T15:12:22;8.70;99.90
21805;DHT22;11064;47.102;15.452;2022-11-13T15:14:48;8.60;99.90
21805;DHT22;11064;47.102;15.452;2022-11-13T15:17:19;8.50;99.90
21805;DHT22;11064;47.102;15.452;2022-11-13T15:19:47;8.40;99.90
21805;DHT22;11064;47.102;15.452;2022-11-13T15:22:15;8.30;99.90
21805;DHT22;11064;47.102;15.452;2022-11-13T15:24:41;8.10;99.90
21805;DHT22;11064;47.102;15.452;2022-11-13T15:27:17;8.00;99.90
21805;DHT22;11064;47.102;15.452;2022-11-13T15:29:43;7.90;99.90
21805;DHT22;11064;47.102;15.452;2022-11-13T15:32:11;7.70;99.90
21805;DHT22;11064;47.102;15.452;2022-11-13T15:34:37;7.60;99.90
21805;DHT22;11064;47.102;15.452;2022-11-13T15:37:14;7.50;99.90
21805;DHT22;11064;47.102;15.452;2022-11-13T15:39:41;7.50;99.90
21805;DHT22;11064;47.102;15.452;2022-11-13T15:42:12;7.40;99.90
21805;DHT22;11064;47.102;15.452;2022-11-13T15:44:38;7.40;99.90
21805;DHT22;11064;47.102;15.452;2022-11-13T15:47:39;7.40;99.90
21805;DHT22;11064;47.102;15.452;2022-11-13T15:50:04;7.40;99.90
21805;DHT22;11064;47.102;15.452;2022-11-13T15:52:34;7.30;99.90
21805;DHT22;11064;47.102;15.452;2022-11-13T15:55:01;7.30;99.90
21805;DHT22;11064;47.102;15.452;2022-11-13T15:57:29;7.20;99.90
21805;DHT22;11064;47.102;15.452;2022-11-13T15:59:55;7.10;99.90
21805;DHT22;11064;47.102;15.452;2022-11-13T16:02:21;7.10;99.90
21805;DHT22;11064;47.102;15.452;2022-11-13T16:04:47;7.00;99.90
21805;DHT22;11064;47.102;15.452;2022-11-13T16:07:17;6.90;99.90
21805;DHT22;11064;47.102;15.452;2022-11-13T16:09:44;6.80;99.90
21805;DHT22;11064;47.102;15.452;2022-11-13T16:12:11;6.80;99.90
21805;DHT22;11064;47.102;15.452;2022-11-13T16:14:37;6.70;99.90
21805;DHT22;11064;47.102;15.452;2022-11-13T16:17:15;6.60;99.90
21805;DHT22;11064;47.102;15.452;2022-11-13T16:19:47;6.50;99.90
21805;DHT22;11064;47.102;15.452;2022-11-13T16:22:22;6.40;99.90
21805;DHT22;11064;47.102;15.452;2022-11-13T16:24:49;6.20;99.90
21805;DHT22;11064;47.102;15.452;2022-11-13T16:27:25;6.10;99.90
21805;DHT22;11064;47.102;15.452;2022-11-13T16:29:51;6.00;99.90
21805;DHT22;11064;47.102;15.452;2022-11-13T16:32:18;5.90;99.90
21805;DHT22;11064;47.102;15.452;2022-11-13T16:34:43;5.90;99.90
21805;DHT22;11064;47.102;15.452;2022-11-13T16:37:15;5.80;99.90
21805;DHT22;11064;47.102;15.452;2022-11-13T16:39:43;5.80;99.90
21805;DHT22;11064;47.102;15.452;2022-11-13T16:42:10;5.80;99.90
21805;DHT22;11064;47.102;15.452;2022-11-13T16:44:37;5.80;99.90
21805;DHT22;11064;47.102;15.452;2022-11-13T16:47:04;5.80;99.90
21805;DHT22;11064;47.102;15.452;2022-11-13T16:49:30;5.70;99.90
21805;DHT22;11064;47.102;15.452;2022-11-13T16:51:57;5.70;99.90
21805;DHT22;11064;47.102;15.452;2022-11-13T16:54:22;5.70;99.90
21805;DHT22;11064;47.102;15.452;2022-11-13T16:56:48;5.70;99.90
21805;DHT22;11064;47.102;15.452;2022-11-13T16:59:14;5.70;99.90
21805;DHT22;11064;47.102;15.452;2022-11-13T17:01:41;5.70;99.90
21805;DHT22;11064;47.102;15.452;2022-11-13T17:04:12;5.70;99.90
21805;DHT22;11064;47.102;15.452;2022-11-13T17:06:39;5.80;99.90
21805;DHT22;11064;47.102;15.452;2022-11-13T17:09:05;5.70;99.90
21805;DHT22;11064;47.102;15.452;2022-11-13T17:11:31;5.70;99.90
21805;DHT22;11064;47.102;15.452;2022-11-13T17:13:59;5.70;99.90
21805;DHT22;11064;47.102;15.452;2022-11-13T17:16:27;5.60;99.90
21805;DHT22;11064;47.102;15.452;2022-11-13T17:18:54;5.70;99.90
21805;DHT22;11064;47.102;15.452;2022-11-13T17:21:23;5.60;99.90
21805;DHT22;11064;47.102;15.452;2022-11-13T17:23:57;5.70;99.90
21805;DHT22;11064;47.102;15.452;2022-11-13T17:26:24;5.60;99.90
21805;DHT22;11064;47.102;15.452;2022-11-13T17:28:51;5.60;99.90
21805;DHT22;11064;47.102;15.452;2022-11-13T17:31:17;5.60;99.90
21805;DHT22;11064;47.102;15.452;2022-11-13T17:33:43;5.60;99.90
21805;DHT22;11064;47.102;15.452;2022-11-13T17:36:10;5.50;99.90
21805;DHT22;11064;47.102;15.452;2022-11-13T17:38:36;5.50;99.90
21805;DHT22;11064;47.102;15.452;2022-11-13T17:41:09;5.50;99.90
21805;DHT22;11064;47.102;15.452;2022-11-13T17:43:36;5.50;99.90
21805;DHT22;11064;47.102;15.452;2022-11-13T17:46:06;5.50;99.90
21805;DHT22;11064;47.102;15.452;2022-11-13T17:48:34;5.50;99.90
21805;DHT22;11064;47.102;15.452;2022-11-13T17:51:04;5.50;99.90
21805;DHT22;11064;47.102;15.452;2022-11-13T17:53:33;5.50;99.90
21805;DHT22;11064;47.102;15.452;2022-11-13T17:56:01;5.60;99.90
21805;DHT22;11064;47.102;15.452;2022-11-13T17:58:28;5.60;99.90
21805;DHT22;11064;47.102;15.452;2022-11-13T18:01:03;5.60;99.90
21805;DHT22;11064;47.102;15.452;2022-11-13T18:03:30;5.70;99.90
21805;DHT22;11064;47.102;15.452;2022-11-13T18:05:56;5.70;99.90
21805;DHT22;11064;47.102;15.452;2022-11-13T18:08:22;5.70;99.90
21805;DHT22;11064;47.102;15.452;2022-11-13T18:10:48;5.70;99.90
21805;DHT22;11064;47.102;15.452;2022-11-13T18:13:14;5.80;99.90
21805;DHT22;11064;47.102;15.452;2022-11-13T18:15:41;5.90;99.90
21805;DHT22;11064;47.102;15.452;2022-11-13T18:18:08;6.10;99.90
21805;DHT22;11064;47.102;15.452;2022-11-13T18:20:38;6.20;99.90
21805;DHT22;11064;47.102;15.452;2022-11-13T18:23:04;6.30;99.90
21805;DHT22;11064;47.102;15.452;2022-11-13T18:25:33;6.50;99.90
21805;DHT22;11064;47.102;15.452;2022-11-13T18:27:59;6.60;99.90
21805;DHT22;11064;47.102;15.452;2022-11-13T18:30:25;6.70;99.90
21805;DHT22;11064;47.102;15.452;2022-11-13T18:32:52;6.80;99.90
21805;DHT22;11064;47.102;15.452;2022-11-13T18:35:19;6.90;99.90
21805;DHT22;11064;47.102;15.452;2022-11-13T18:37:45;7.00;99.90
21805;DHT22;11064;47.102;15.452;2022-11-13T18:40:13;7.10;99.90
21805;DHT22;11064;47.102;15.452;2022-11-13T18:42:39;7.20;99.90
21805;DHT22;11064;47.102;15.452;2022-11-13T18:45:06;7.20;99.90
21805;DHT22;11064;47.102;15.452;2022-11-13T18:47:32;7.30;99.90
21805;DHT22;11064;47.102;15.452;2022-11-13T18:49:58;7.30;99.90
21805;DHT22;11064;47.102;15.452;2022-11-13T18:52:24;7.40;99.90
21805;DHT22;11064;47.102;15.452;2022-11-13T18:54:50;7.40;99.90
21805;DHT22;11064;47.102;15.452;2022-11-13T18:57:16;7.40;99.90
21805;DHT22;11064;47.102;15.452;2022-11-13T18:59:42;7.30;99.90
21805;DHT22;11064;47.102;15.452;2022-11-13T19:02:10;7.30;99.90
21805;DHT22;11064;47.102;15.452;2022-11-13T19:04:37;7.20;99.90
21805;DHT22;11064;47.102;15.452;2022-11-13T19:07:06;7.20;99.90
21805;DHT22;11064;47.102;15.452;2022-11-13T19:09:33;7.20;99.90
21805;DHT22;11064;47.102;15.452;2022-11-13T19:11:59;7.30;99.90
21805;DHT22;11064;47.102;15.452;2022-11-13T19:14:25;7.40;99.90
21805;DHT22;11064;47.102;15.452;2022-11-13T19:16:51;7.40;99.90
21805;DHT22;11064;47.102;15.452;2022-11-13T19:19:20;7.40;99.90
21805;DHT22;11064;47.102;15.452;2022-11-13T19:21:47;7.50;99.90
21805;DHT22;11064;47.102;15.452;2022-11-13T19:24:13;7.40;99.90
21805;DHT22;11064;47.102;15.452;2022-11-13T19:26:41;7.30;99.90
21805;DHT22;11064;47.102;15.452;2022-11-13T19:29:07;7.30;99.90
21805;DHT22;11064;47.102;15.452;2022-11-13T19:31:33;7.30;99.90
21805;DHT22;11064;47.102;15.452;2022-11-13T19:34:05;7.20;99.90
21805;DHT22;11064;47.102;15.452;2022-11-13T19:36:34;7.20;99.90
21805;DHT22;11064;47.102;15.452;2022-11-13T19:39:02;7.30;99.90
21805;DHT22;11064;47.102;15.452;2022-11-13T19:41:29;7.40;99.90
21805;DHT22;11064;47.102;15.452;2022-11-13T19:43:57;7.40;99.90
21805;DHT22;11064;47.102;15.452;2022-11-13T19:46:24;7.40;99.90
21805;DHT22;11064;47.102;15.452;2022-11-13T19:48:52;7.50;99.90
21805;DHT22;11064;47.102;15.452;2022-11-13T19:51:23;7.50;99.90
21805;DHT22;11064;47.102;15.452;2022-11-13T19:53:55;7.60;99.90
21805;DHT22;11064;47.102;15.452;2022-11-13T19:56:23;7.60;99.90
21805;DHT22;11064;47.102;15.452;2022-11-13T19:58:50;7.70;99.90
21805;DHT22;11064;47.102;15.452;2022-11-13T20:01:20;7.70;99.90
21805;DHT22;11064;47.102;15.452;2022-11-13T20:03:46;7.60;99.90
21805;DHT22;11064;47.102;15.452;2022-11-13T20:06:15;7.50;99.90
21805;DHT22;11064;47.102;15.452;2022-11-13T20:08:41;7.40;99.90
21805;DHT22;11064;47.102;15.452;2022-11-13T20:11:09;7.40;99.90
21805;DHT22;11064;47.102;15.452;2022-11-13T20:13:37;7.50;99.90
21805;DHT22;11064;47.102;15.452;2022-11-13T20:16:06;7.50;99.90
21805;DHT22;11064;47.102;15.452;2022-11-13T20:18:32;7.60;99.90
21805;DHT22;11064;47.102;15.452;2022-11-13T20:20:59;7.60;99.90
21805;DHT22;11064;47.102;15.452;2022-11-13T20:23:25;7.60;99.90
21805;DHT22;11064;47.102;15.452;2022-11-13T20:25:54;7.70;99.90
21805;DHT22;11064;47.102;15.452;2022-11-13T20:28:24;7.70;99.90
21805;DHT22;11064;47.102;15.452;2022-11-13T20:30:53;7.70;99.90
21805;DHT22;11064;47.102;15.452;2022-11-13T20:33:30;7.70;99.90
21805;DHT22;11064;47.102;15.452;2022-11-13T20:35:57;7.70;99.90
21805;DHT22;11064;47.102;15.452;2022-11-13T20:38:23;7.70;99.90
21805;DHT22;11064;47.102;15.452;2022-11-13T20:40:50;7.70;99.90
21805;DHT22;11064;47.102;15.452;2022-11-13T20:43:16;7.70;99.90
21805;DHT22;11064;47.102;15.452;2022-11-13T20:45:42;7.60;99.90
21805;DHT22;11064;47.102;15.452;2022-11-13T20:48:08;7.60;99.90
21805;DHT22;11064;47.102;15.452;2022-11-13T20:50:35;7.60;99.90
21805;DHT22;11064;47.102;15.452;2022-11-13T20:53:03;7.60;99.90
21805;DHT22;11064;47.102;15.452;2022-11-13T20:55:30;7.60;99.90
21805;DHT22;11064;47.102;15.452;2022-11-13T20:57:56;7.60;99.90
21805;DHT22;11064;47.102;15.452;2022-11-13T21:00:24;7.70;99.90
21805;DHT22;11064;47.102;15.452;2022-11-13T21:02:50;7.70;99.90
21805;DHT22;11064;47.102;15.452;2022-11-13T21:05:17;7.80;99.90
21805;DHT22;11064;47.102;15.452;2022-11-13T21:07:43;7.80;99.90
21805;DHT22;11064;47.102;15.452;2022-11-13T21:10:09;7.80;99.90
21805;DHT22;11064;47.102;15.452;2022-11-13T21:12:34;7.80;99.90
21805;DHT22;11064;47.102;15.452;2022-11-13T21:15:01;7.80;99.90
21805;DHT22;11064;47.102;15.452;2022-11-13T21:17:27;7.80;99.90
21805;DHT22;11064;47.102;15.452;2022-11-13T21:19:52;7.80;99.90
21805;DHT22;11064;47.102;15.452;2022-11-13T21:22:18;7.90;99.90
21805;DHT22;11064;47.102;15.452;2022-11-13T21:24:44;7.80;99.90
21805;DHT22;11064;47.102;15.452;2022-11-13T21:27:10;7.80;99.90
21805;DHT22;11064;47.102;15.452;2022-11-13T21:29:36;7.80;99.90
21805;DHT22;11064;47.102;15.452;2022-11-13T21:32:02;7.70;99.90
21805;DHT22;11064;47.102;15.452;2022-11-13T21:34:28;7.60;99.90
21805;DHT22;11064;47.102;15.452;2022-11-13T21:36:54;7.60;99.90
21805;DHT22;11064;47.102;15.452;2022-11-13T21:39:19;7.60;99.90
21805;DHT22;11064;47.102;15.452;2022-11-13T21:41:45;7.50;99.90
21805;DHT22;11064;47.102;15.452;2022-11-13T21:44:11;7.50;99.90
21805;DHT22;11064;47.102;15.452;2022-11-13T21:46:38;7.50;99.90
21805;DHT22;11064;47.102;15.452;2022-11-13T21:49:10;7.50;99.90
21805;DHT22;11064;47.102;15.452;2022-11-13T21:51:38;7.40;99.90
21805;DHT22;11064;47.102;15.452;2022-11-13T21:54:05;7.40;99.90
21805;DHT22;11064;47.102;15.452;2022-11-13T21:56:32;7.40;99.90
21805;DHT22;11064;47.102;15.452;2022-11-13T21:58:59;7.40;99.90
21805;DHT22;11064;47.102;15.452;2022-11-13T22:01:25;7.40;99.90
21805;DHT22;11064;47.102;15.452;2022-11-13T22:03:52;7.50;99.90
21805;DHT22;11064;47.102;15.452;2022-11-13T22:06:21;7.50;99.90
21805;DHT22;11064;47.102;15.452;2022-11-13T22:09:35;7.50;99.90
21805;DHT22;11064;47.102;15.452;2022-11-13T22:11:42;7.50;99.90
21805;DHT22;11064;47.102;15.452;2022-11-13T22:14:09;7.50;99.90
21805;DHT22;11064;47.102;15.452;2022-11-13T22:16:37;7.60;99.90
21805;DHT22;11064;47.102;15.452;2022-11-13T22:19:06;7.60;99.90
21805;DHT22;11064;47.102;15.452;2022-11-13T22:21:32;7.60;99.90
21805;DHT22;11064;47.102;15.452;2022-11-13T22:24:00;7.60;99.90
21805;DHT22;11064;47.102;15.452;2022-11-13T22:26:27;7.60;99.90
21805;DHT22;11064;47.102;15.452;2022-11-13T22:28:55;7.70;99.90
21805;DHT22;11064;47.102;15.452;2022-11-13T22:31:24;7.70;99.90
21805;DHT22;11064;47.102;15.452;2022-11-13T22:33:51;7.80;99.90
21805;DHT22;11064;47.102;15.452;2022-11-13T22:36:19;7.70;99.90
21805;DHT22;11064;47.102;15.452;2022-11-13T22:38:45;7.60;99.90
21805;DHT22;11064;47.102;15.452;2022-11-13T22:41:13;7.60;99.90
21805;DHT22;11064;47.102;15.452;2022-11-13T22:43:41;7.60;99.90
21805;DHT22;11064;47.102;15.452;2022-11-13T22:46:12;7.70;99.90
21805;DHT22;11064;47.102;15.452;2022-11-13T22:48:40;7.70;99.90
21805;DHT22;11064;47.102;15.452;2022-11-13T22:51:19;7.80;99.90
21805;DHT22;11064;47.102;15.452;2022-11-13T22:53:50;7.80;99.90
21805;DHT22;11064;47.102;15.452;2022-11-13T22:56:17;7.80;99.90
21805;DHT22;11064;47.102;15.452;2022-11-13T22:58:43;7.80;99.90
